Terminal Aerodrome Forecast
Issued by NWS

Home | Current Version | Previous Version | Graphics & Text | Print | Product List | Glossary On
Versions: 1 2 3 4 5 6 7 8 9 10 11 12 13 14
133
FTUS43 KOAX 240520
TAFCDR
TAF
KCDR 240520Z 2406/2506 05005KT P6SM SCT150
     FM240800 06007KT P6SM VCTS BKN100CB
     FM241100 07008KT P6SM SCT120
     FM242000 11011G20KT P6SM FEW200=

USA.gov is the U.S. government's official web portal to all federal, state and local government web resources and services.